sensor_id;sensor_type;location;lat;lon;timestamp;pressure;altitude;pressure_sealevel;temperature;humidity
41898;BME280;27576;53.366;-1.498;2023-03-31T00:01:23;97847.69;;;10.29;100.00
41898;BME280;27576;53.366;-1.498;2023-03-31T00:03:49;97861.34;;;10.36;100.00
41898;BME280;27576;53.366;-1.498;2023-03-31T00:06:14;97856.09;;;10.39;100.00
41898;BME280;27576;53.366;-1.498;2023-03-31T00:08:43;97813.44;;;10.19;100.00
41898;BME280;27576;53.366;-1.498;2023-03-31T00:11:08;97837.13;;;10.37;100.00
41898;BME280;27576;53.366;-1.498;2023-03-31T00:13:36;97880.44;;;10.63;100.00
41898;BME280;27576;53.366;-1.498;2023-03-31T00:16:04;97866.66;;;10.62;100.00
41898;BME280;27576;53.366;-1.498;2023-03-31T00:18:30;97826.75;;;10.38;100.00
41898;BME280;27576;53.366;-1.498;2023-03-31T00:21:06;97841.09;;;10.50;100.00
41898;BME280;27576;53.366;-1.498;2023-03-31T00:23:32;97793.53;;;10.21;100.00
41898;BME280;27576;53.366;-1.498;2023-03-31T00:25:57;97803.75;;;10.27;100.00
41898;BME280;27576;53.366;-1.498;2023-03-31T00:28:23;97777.38;;;10.13;100.00
41898;BME280;27576;53.366;-1.498;2023-03-31T00:30:48;97807.81;;;10.36;100.00
41898;BME280;27576;53.366;-1.498;2023-03-31T00:33:14;97788.22;;;10.27;100.00
41898;BME280;27576;53.366;-1.498;2023-03-31T00:35:39;97800.81;;;10.40;100.00
41898;BME280;27576;53.366;-1.498;2023-03-31T00:38:05;97803.31;;;10.43;100.00
41898;BME280;27576;53.366;-1.498;2023-03-31T00:40:33;97778.50;;;10.36;100.00
41898;BME280;27576;53.366;-1.498;2023-03-31T00:42:59;97751.25;;;10.22;100.00
41898;BME280;27576;53.366;-1.498;2023-03-31T00:45:27;97741.88;;;10.18;100.00
41898;BME280;27576;53.366;-1.498;2023-03-31T00:48:05;97734.00;;;10.21;100.00
41898;BME280;27576;53.366;-1.498;2023-03-31T00:50:39;97746.88;;;10.26;100.00
41898;BME280;27576;53.366;-1.498;2023-03-31T00:53:16;97739.09;;;10.26;100.00
41898;BME280;27576;53.366;-1.498;2023-03-31T00:55:55;97733.88;;;10.27;100.00
41898;BME280;27576;53.366;-1.498;2023-03-31T00:58:22;97718.63;;;10.17;100.00
41898;BME280;27576;53.366;-1.498;2023-03-31T01:00:54;97710.06;;;10.15;100.00
41898;BME280;27576;53.366;-1.498;2023-03-31T01:03:21;97710.91;;;10.15;100.00
41898;BME280;27576;53.366;-1.498;2023-03-31T01:05:48;97727.88;;;10.25;100.00
41898;BME280;27576;53.366;-1.498;2023-03-31T01:08:18;97700.81;;;10.06;100.00
41898;BME280;27576;53.366;-1.498;2023-03-31T01:10:48;97682.97;;;9.97;100.00
41898;BME280;27576;53.366;-1.498;2023-03-31T01:13:15;97674.41;;;9.95;100.00
41898;BME280;27576;53.366;-1.498;2023-03-31T01:15:41;97695.41;;;10.14;100.00
41898;BME280;27576;53.366;-1.498;2023-03-31T01:18:08;97692.03;;;10.12;100.00
41898;BME280;27576;53.366;-1.498;2023-03-31T01:28:40;97634.78;;;9.93;100.00
41898;BME280;27576;53.366;-1.498;2023-03-31T01:34:09;97650.56;;;10.15;100.00
41898;BME280;27576;53.366;-1.498;2023-03-31T01:42:51;97588.38;;;9.88;100.00
41898;BME280;27576;53.366;-1.498;2023-03-31T01:45:35;97590.88;;;9.91;100.00
41898;BME280;27576;53.366;-1.498;2023-03-31T01:48:11;97595.00;;;9.97;100.00
41898;BME280;27576;53.366;-1.498;2023-03-31T01:53:28;97590.69;;;9.97;100.00
41898;BME280;27576;53.366;-1.498;2023-03-31T01:58:42;97563.56;;;9.82;100.00
41898;BME280;27576;53.366;-1.498;2023-03-31T02:03:47;97541.34;;;9.75;100.00
41898;BME280;27576;53.366;-1.498;2023-03-31T02:06:18;97553.81;;;9.91;100.00
41898;BME280;27576;53.366;-1.498;2023-03-31T02:08:49;97546.94;;;9.90;100.00
41898;BME280;27576;53.366;-1.498;2023-03-31T02:11:18;97513.00;;;9.72;100.00
41898;BME280;27576;53.366;-1.498;2023-03-31T02:13:45;97499.25;;;9.70;100.00
41898;BME280;27576;53.366;-1.498;2023-03-31T02:16:16;97484.09;;;9.59;100.00
41898;BME280;27576;53.366;-1.498;2023-03-31T02:18:46;97511.06;;;9.79;100.00
41898;BME280;27576;53.366;-1.498;2023-03-31T02:21:15;97490.63;;;9.71;100.00
41898;BME280;27576;53.366;-1.498;2023-03-31T02:23:41;97502.56;;;9.75;100.00
41898;BME280;27576;53.366;-1.498;2023-03-31T02:26:23;97466.75;;;9.63;100.00
41898;BME280;27576;53.366;-1.498;2023-03-31T02:28:51;97476.72;;;9.75;100.00
41898;BME280;27576;53.366;-1.498;2023-03-31T02:31:48;97482.50;;;9.82;100.00
41898;BME280;27576;53.366;-1.498;2023-03-31T02:34:17;97467.22;;;9.74;100.00
41898;BME280;27576;53.366;-1.498;2023-03-31T02:36:43;97438.31;;;9.63;100.00
41898;BME280;27576;53.366;-1.498;2023-03-31T02:39:14;97438.16;;;9.68;100.00
41898;BME280;27576;53.366;-1.498;2023-03-31T02:41:41;97420.22;;;9.62;100.00
41898;BME280;27576;53.366;-1.498;2023-03-31T02:44:08;97428.56;;;9.71;100.00
41898;BME280;27576;53.366;-1.498;2023-03-31T02:46:34;97428.56;;;9.71;100.00
41898;BME280;27576;53.366;-1.498;2023-03-31T02:49:01;97436.03;;;9.80;100.00
41898;BME280;27576;53.366;-1.498;2023-03-31T02:57:27;97414.53;;;9.78;100.00
41898;BME280;27576;53.366;-1.498;2023-03-31T03:06:16;97389.66;;;9.74;100.00
41898;BME280;27576;53.366;-1.498;2023-03-31T03:14:30;97372.69;;;9.67;100.00
41898;BME280;27576;53.366;-1.498;2023-03-31T03:17:09;97348.16;;;9.52;100.00
41898;BME280;27576;53.366;-1.498;2023-03-31T03:19:36;97334.47;;;9.49;100.00
41898;BME280;27576;53.366;-1.498;2023-03-31T03:22:01;97357.34;;;9.61;100.00
41898;BME280;27576;53.366;-1.498;2023-03-31T03:24:27;97344.44;;;9.61;100.00
41898;BME280;27576;53.366;-1.498;2023-03-31T03:26:54;97301.28;;;9.37;100.00
41898;BME280;27576;53.366;-1.498;2023-03-31T03:29:20;97322.97;;;9.59;100.00
41898;BME280;27576;53.366;-1.498;2023-03-31T03:31:45;97284.78;;;9.41;100.00
41898;BME280;27576;53.366;-1.498;2023-03-31T03:34:11;97310.03;;;9.59;100.00
41898;BME280;27576;53.366;-1.498;2023-03-31T03:36:37;97285.53;;;9.44;100.00
41898;BME280;27576;53.366;-1.498;2023-03-31T03:39:04;97273.69;;;9.37;100.00
41898;BME280;27576;53.366;-1.498;2023-03-31T03:41:31;97251.69;;;9.25;100.00
41898;BME280;27576;53.366;-1.498;2023-03-31T03:43:58;97255.94;;;9.26;100.00
41898;BME280;27576;53.366;-1.498;2023-03-31T03:46:23;97249.00;;;9.28;100.00
41898;BME280;27576;53.366;-1.498;2023-03-31T03:48:48;97263.13;;;9.45;100.00
41898;BME280;27576;53.366;-1.498;2023-03-31T03:51:14;97252.22;;;9.35;100.00
41898;BME280;27576;53.366;-1.498;2023-03-31T03:53:39;97265.69;;;9.45;100.00
41898;BME280;27576;53.366;-1.498;2023-03-31T03:56:05;97251.97;;;9.43;100.00
41898;BME280;27576;53.366;-1.498;2023-03-31T03:58:30;97227.44;;;9.29;100.00
41898;BME280;27576;53.366;-1.498;2023-03-31T04:00:56;97258.53;;;9.53;100.00
41898;BME280;27576;53.366;-1.498;2023-03-31T04:03:21;97208.59;;;9.26;100.00
41898;BME280;27576;53.366;-1.498;2023-03-31T04:05:47;97244.78;;;9.51;100.00
41898;BME280;27576;53.366;-1.498;2023-03-31T04:08:17;97222.84;;;9.38;100.00
41898;BME280;27576;53.366;-1.498;2023-03-31T04:10:44;97236.16;;;9.52;100.00
41898;BME280;27576;53.366;-1.498;2023-03-31T04:13:10;97239.53;;;9.54;100.00
41898;BME280;27576;53.366;-1.498;2023-03-31T04:15:35;97195.38;;;9.35;100.00
41898;BME280;27576;53.366;-1.498;2023-03-31T04:18:00;97211.34;;;9.46;100.00
41898;BME280;27576;53.366;-1.498;2023-03-31T04:20:26;97198.69;;;9.39;100.00
41898;BME280;27576;53.366;-1.498;2023-03-31T04:22:55;97213.78;;;9.51;100.00
41898;BME280;27576;53.366;-1.498;2023-03-31T04:25:23;97179.84;;;9.37;100.00
41898;BME280;27576;53.366;-1.498;2023-03-31T04:27:50;97196.59;;;9.50;100.00
41898;BME280;27576;53.366;-1.498;2023-03-31T04:30:20;97161.94;;;9.30;100.00
41898;BME280;27576;53.366;-1.498;2023-03-31T04:32:54;97158.63;;;9.27;100.00
41898;BME280;27576;53.366;-1.498;2023-03-31T04:35:22;97159.25;;;9.33;100.00
41898;BME280;27576;53.366;-1.498;2023-03-31T04:37:48;97176.81;;;9.49;100.00
41898;BME280;27576;53.366;-1.498;2023-03-31T04:40:15;97138.78;;;9.27;100.00
41898;BME280;27576;53.366;-1.498;2023-03-31T04:42:42;97137.84;;;9.30;100.00
41898;BME280;27576;53.366;-1.498;2023-03-31T04:45:08;97131.78;;;9.31;100.00
41898;BME280;27576;53.366;-1.498;2023-03-31T04:47:36;97145.28;;;9.39;100.00
41898;BME280;27576;53.366;-1.498;2023-03-31T04:50:02;97158.72;;;9.49;100.00
41898;BME280;27576;53.366;-1.498;2023-03-31T04:52:27;97137.50;;;9.39;100.00
41898;BME280;27576;53.366;-1.498;2023-03-31T04:54:53;97137.47;;;9.41;100.00
41898;BME280;27576;53.366;-1.498;2023-03-31T04:57:18;97115.50;;;9.29;100.00
41898;BME280;27576;53.366;-1.498;2023-03-31T04:59:44;97107.00;;;9.25;100.00
41898;BME280;27576;53.366;-1.498;2023-03-31T05:02:10;97111.28;;;9.26;100.00
41898;BME280;27576;53.366;-1.498;2023-03-31T05:04:35;97117.97;;;9.32;100.00
41898;BME280;27576;53.366;-1.498;2023-03-31T05:07:02;97125.47;;;9.40;100.00
41898;BME280;27576;53.366;-1.498;2023-03-31T05:09:27;97095.88;;;9.23;100.00
41898;BME280;27576;53.366;-1.498;2023-03-31T05:11:53;97121.81;;;9.45;100.00
41898;BME280;27576;53.366;-1.498;2023-03-31T05:14:18;97100.84;;;9.29;100.00
41898;BME280;27576;53.366;-1.498;2023-03-31T05:16:45;97101.69;;;9.30;100.00
41898;BME280;27576;53.366;-1.498;2023-03-31T05:19:10;97088.09;;;9.25;100.00
41898;BME280;27576;53.366;-1.498;2023-03-31T05:21:36;97112.41;;;9.43;100.00
41898;BME280;27576;53.366;-1.498;2023-03-31T05:24:05;97107.47;;;9.37;100.00
41898;BME280;27576;53.366;-1.498;2023-03-31T05:26:30;97112.41;;;9.43;100.00
41898;BME280;27576;53.366;-1.498;2023-03-31T05:28:56;97083.03;;;9.22;100.00
41898;BME280;27576;53.366;-1.498;2023-03-31T05:31:21;97106.38;;;9.44;100.00
41898;BME280;27576;53.366;-1.498;2023-03-31T05:33:47;97102.06;;;9.43;100.00
41898;BME280;27576;53.366;-1.498;2023-03-31T05:36:14;97095.13;;;9.45;100.00
41898;BME280;27576;53.366;-1.498;2023-03-31T05:38:40;97096.81;;;9.46;100.00
41898;BME280;27576;53.366;-1.498;2023-03-31T05:41:07;97085.22;;;9.32;100.00
41898;BME280;27576;53.366;-1.498;2023-03-31T05:43:34;97114.06;;;9.45;100.00
41898;BME280;27576;53.366;-1.498;2023-03-31T05:46:00;97104.56;;;9.46;100.00
41898;BME280;27576;53.366;-1.498;2023-03-31T05:48:25;97097.66;;;9.46;100.00
41898;BME280;27576;53.366;-1.498;2023-03-31T05:50:50;97083.25;;;9.39;100.00
41898;BME280;27576;53.366;-1.498;2023-03-31T05:53:16;97063.94;;;9.26;100.00
41898;BME280;27576;53.366;-1.498;2023-03-31T05:55:41;97068.16;;;9.28;100.00
41898;BME280;27576;53.366;-1.498;2023-03-31T05:58:06;97068.16;;;9.28;100.00
41898;BME280;27576;53.366;-1.498;2023-03-31T06:00:34;97083.25;;;9.39;100.00
41898;BME280;27576;53.366;-1.498;2023-03-31T06:03:00;97095.91;;;9.47;100.00
41898;BME280;27576;53.366;-1.498;2023-03-31T06:05:28;97086.44;;;9.47;100.00
41898;BME280;27576;53.366;-1.498;2023-03-31T06:07:55;97073.88;;;9.37;100.00
41898;BME280;27576;53.366;-1.498;2023-03-31T06:10:20;97085.53;;;9.48;100.00
41898;BME280;27576;53.366;-1.498;2023-03-31T06:12:46;97075.41;;;9.42;100.00
41898;BME280;27576;53.366;-1.498;2023-03-31T06:15:11;97082.13;;;9.46;100.00
41898;BME280;27576;53.366;-1.498;2023-03-31T06:17:39;97068.75;;;9.35;100.00
41898;BME280;27576;53.366;-1.498;2023-03-31T06:20:05;97072.91;;;9.39;100.00
41898;BME280;27576;53.366;-1.498;2023-03-31T06:22:31;97079.44;;;9.49;100.00
41898;BME280;27576;53.366;-1.498;2023-03-31T06:24:56;97026.41;;;9.16;100.00
41898;BME280;27576;53.366;-1.498;2023-03-31T06:27:25;97057.59;;;9.34;100.00
41898;BME280;27576;53.366;-1.498;2023-03-31T06:29:50;97075.34;;;9.44;100.00
41898;BME280;27576;53.366;-1.498;2023-03-31T06:32:18;97083.78;;;9.49;100.00
41898;BME280;27576;53.366;-1.498;2023-03-31T06:34:44;97065.13;;;9.41;100.00
41898;BME280;27576;53.366;-1.498;2023-03-31T06:37:12;97065.91;;;9.43;100.00
41898;BME280;27576;53.366;-1.498;2023-03-31T06:39:37;97086.09;;;9.56;100.00
41898;BME280;27576;53.366;-1.498;2023-03-31T06:42:03;97075.81;;;9.55;100.00
41898;BME280;27576;53.366;-1.498;2023-03-31T06:44:28;97076.03;;;9.49;100.00
41898;BME280;27576;53.366;-1.498;2023-03-31T06:46:54;97074.28;;;9.49;100.00
41898;BME280;27576;53.366;-1.498;2023-03-31T06:49:19;97067.53;;;9.45;100.00
41898;BME280;27576;53.366;-1.498;2023-03-31T06:51:45;97080.84;;;9.58;100.00
41898;BME280;27576;53.366;-1.498;2023-03-31T06:54:10;97011.63;;;9.19;100.00
41898;BME280;27576;53.366;-1.498;2023-03-31T06:56:36;97040.41;;;9.33;100.00
41898;BME280;27576;53.366;-1.498;2023-03-31T06:59:01;97028.56;;;9.28;100.00
41898;BME280;27576;53.366;-1.498;2023-03-31T07:01:26;97065.69;;;9.49;100.00
41898;BME280;27576;53.366;-1.498;2023-03-31T07:03:52;97059.72;;;9.47;100.00
41898;BME280;27576;53.366;-1.498;2023-03-31T07:06:17;97055.56;;;9.43;100.00
41898;BME280;27576;53.366;-1.498;2023-03-31T07:08:43;97056.53;;;9.40;100.00
41898;BME280;27576;53.366;-1.498;2023-03-31T07:11:09;97047.94;;;9.40;100.00
41898;BME280;27576;53.366;-1.498;2023-03-31T07:13:35;97045.47;;;9.37;100.00
41898;BME280;27576;53.366;-1.498;2023-03-31T07:16:00;97043.78;;;9.36;100.00
41898;BME280;27576;53.366;-1.498;2023-03-31T07:18:25;97044.44;;;9.41;100.00
41898;BME280;27576;53.366;-1.498;2023-03-31T07:20:56;97080.84;;;9.58;100.00
41898;BME280;27576;53.366;-1.498;2023-03-31T07:23:21;97065.69;;;9.49;100.00
41898;BME280;27576;53.366;-1.498;2023-03-31T07:25:47;97085.00;;;9.62;100.00
41898;BME280;27576;53.366;-1.498;2023-03-31T07:28:13;97062.16;;;9.51;100.00
41898;BME280;27576;53.366;-1.498;2023-03-31T07:30:39;97078.25;;;9.58;100.00
41898;BME280;27576;53.366;-1.498;2023-03-31T07:33:05;97077.25;;;9.62;100.00
41898;BME280;27576;53.366;-1.498;2023-03-31T07:35:30;97061.16;;;9.55;100.00
41898;BME280;27576;53.366;-1.498;2023-03-31T07:37:56;97065.47;;;9.55;100.00
41898;BME280;27576;53.366;-1.498;2023-03-31T07:40:23;97079.72;;;9.65;100.00
41898;BME280;27576;53.366;-1.498;2023-03-31T07:42:50;97076.94;;;9.71;100.00
41898;BME280;27576;53.366;-1.498;2023-03-31T07:45:20;97082.09;;;9.71;100.00
41898;BME280;27576;53.366;-1.498;2023-03-31T07:47:46;97082.88;;;9.73;100.00
41898;BME280;27576;53.366;-1.498;2023-03-31T07:50:13;97073.56;;;9.69;100.00
41898;BME280;27576;53.366;-1.498;2023-03-31T07:52:39;97087.88;;;9.78;100.00
41898;BME280;27576;53.366;-1.498;2023-03-31T07:55:05;97080.94;;;9.78;100.00
41898;BME280;27576;53.366;-1.498;2023-03-31T07:57:32;97059.97;;;9.64;100.00
41898;BME280;27576;53.366;-1.498;2023-03-31T08:00:00;97086.94;;;9.80;100.00
41898;BME280;27576;53.366;-1.498;2023-03-31T08:02:30;97081.94;;;9.76;100.00
41898;BME280;27576;53.366;-1.498;2023-03-31T08:04:59;97042.03;;;9.59;100.00
41898;BME280;27576;53.366;-1.498;2023-03-31T08:07:24;97087.53;;;9.87;100.00
41898;BME280;27576;53.366;-1.498;2023-03-31T08:09:51;97064.50;;;9.81;100.00
41898;BME280;27576;53.366;-1.498;2023-03-31T08:12:16;97081.25;;;9.94;100.00
41898;BME280;27576;53.366;-1.498;2023-03-31T08:14:42;97050.94;;;9.74;100.00
41898;BME280;27576;53.366;-1.498;2023-03-31T08:17:08;97082.38;;;9.87;100.00
41898;BME280;27576;53.366;-1.498;2023-03-31T08:19:34;97081.41;;;9.90;100.00
41898;BME280;27576;53.366;-1.498;2023-03-31T08:21:59;97096.69;;;9.96;100.00
41898;BME280;27576;53.366;-1.498;2023-03-31T08:24:25;97087.47;;;9.89;100.00
41898;BME280;27576;53.366;-1.498;2023-03-31T08:26:50;97096.59;;;9.99;100.00
41898;BME280;27576;53.366;-1.498;2023-03-31T08:29:15;97091.63;;;9.93;100.00
41898;BME280;27576;53.366;-1.498;2023-03-31T08:31:41;97096.63;;;9.97;100.00
41898;BME280;27576;53.366;-1.498;2023-03-31T08:34:06;97083.16;;;9.89;100.00
41898;BME280;27576;53.366;-1.498;2023-03-31T08:36:32;97087.47;;;9.89;100.00
41898;BME280;27576;53.366;-1.498;2023-03-31T08:38:57;97069.47;;;9.86;100.00
41898;BME280;27576;53.366;-1.498;2023-03-31T08:43:49;97076.91;;;9.95;100.00
41898;BME280;27576;53.366;-1.498;2023-03-31T08:46:16;97100.56;;;10.07;100.00
41898;BME280;27576;53.366;-1.498;2023-03-31T08:48:51;97067.59;;;9.91;100.00
41898;BME280;27576;53.366;-1.498;2023-03-31T08:51:22;97092.84;;;10.06;100.00
41898;BME280;27576;53.366;-1.498;2023-03-31T08:54:15;97102.75;;;10.18;100.00
41898;BME280;27576;53.366;-1.498;2023-03-31T08:56:44;97073.84;;;10.07;100.00
41898;BME280;27576;53.366;-1.498;2023-03-31T08:59:32;97097.44;;;10.21;100.00
41898;BME280;27576;53.366;-1.498;2023-03-31T09:02:27;97105.66;;;10.32;100.00
41898;BME280;27576;53.366;-1.498;2023-03-31T09:07:50;97108.19;;;10.34;100.00
41898;BME280;27576;53.366;-1.498;2023-03-31T09:10:37;97100.78;;;10.25;100.00
41898;BME280;27576;53.366;-1.498;2023-03-31T09:16:20;97063.97;;;9.95;100.00
41898;BME280;27576;53.366;-1.498;2023-03-31T09:18:49;97119.69;;;10.27;100.00
41898;BME280;27576;53.366;-1.498;2023-03-31T09:21:39;97122.19;;;10.28;100.00
41898;BME280;27576;53.366;-1.498;2023-03-31T09:26:42;97105.91;;;10.26;100.00
41898;BME280;27576;53.366;-1.498;2023-03-31T09:29:14;97108.44;;;10.28;100.00
41898;BME280;27576;53.366;-1.498;2023-03-31T09:31:44;97130.66;;;10.34;100.00
41898;BME280;27576;53.366;-1.498;2023-03-31T09:34:16;97091.16;;;10.05;100.00
41898;BME280;27576;53.366;-1.498;2023-03-31T09:36:43;97138.53;;;10.30;100.00
41898;BME280;27576;53.366;-1.498;2023-03-31T09:39:11;97144.59;;;10.29;100.00
41898;BME280;27576;53.366;-1.498;2023-03-31T09:41:38;97144.88;;;10.22;100.00
41898;BME280;27576;53.366;-1.498;2023-03-31T09:44:36;97140.47;;;10.24;100.00
41898;BME280;27576;53.366;-1.498;2023-03-31T09:46:59;97095.84;;;9.95;100.00
41898;BME280;27576;53.366;-1.498;2023-03-31T09:49:31;97121.19;;;10.09;100.00
41898;BME280;27576;53.366;-1.498;2023-03-31T09:52:06;97153.97;;;10.32;100.00
41898;BME280;27576;53.366;-1.498;2023-03-31T09:54:49;97158.13;;;10.36;100.00
41898;BME280;27576;53.366;-1.498;2023-03-31T09:57:27;97151.47;;;10.30;100.00
41898;BME280;27576;53.366;-1.498;2023-03-31T10:04:57;97148.63;;;10.37;100.00
41898;BME280;27576;53.366;-1.498;2023-03-31T10:07:23;97149.31;;;10.42;100.00
41898;BME280;27576;53.366;-1.498;2023-03-31T10:09:50;97165.13;;;10.56;100.00
41898;BME280;27576;53.366;-1.498;2023-03-31T10:12:20;97183.56;;;10.70;100.00
41898;BME280;27576;53.366;-1.498;2023-03-31T10:14:50;97171.53;;;10.69;100.00
41898;BME280;27576;53.366;-1.498;2023-03-31T10:17:21;97168.22;;;10.66;100.00
41898;BME280;27576;53.366;-1.498;2023-03-31T10:19:58;97185.03;;;10.77;100.00
41898;BME280;27576;53.366;-1.498;2023-03-31T10:22:30;97185.03;;;10.77;100.00
41898;BME280;27576;53.366;-1.498;2023-03-31T10:25:16;97155.56;;;10.58;100.00
41898;BME280;27576;53.366;-1.498;2023-03-31T10:27:44;97159.00;;;10.59;100.00
41898;BME280;27576;53.366;-1.498;2023-03-31T10:30:18;97193.91;;;10.92;100.00
41898;BME280;27576;53.366;-1.498;2023-03-31T10:32:45;97160.91;;;10.75;100.00
41898;BME280;27576;53.366;-1.498;2023-03-31T10:35:31;97167.16;;;10.92;100.00
41898;BME280;27576;53.366;-1.498;2023-03-31T10:38:01;97175.34;;;11.03;100.00
41898;BME280;27576;53.366;-1.498;2023-03-31T10:40:29;97205.31;;;11.30;100.00
41898;BME280;27576;53.366;-1.498;2023-03-31T10:43:03;97194.53;;;11.19;100.00
41898;BME280;27576;53.366;-1.498;2023-03-31T10:45:36;97211.53;;;11.26;100.00
41898;BME280;27576;53.366;-1.498;2023-03-31T10:48:02;97205.16;;;11.13;100.00
41898;BME280;27576;53.366;-1.498;2023-03-31T10:50:30;97218.13;;;11.13;100.00
41898;BME280;27576;53.366;-1.498;2023-03-31T10:55:34;97239.66;;;10.93;100.00
41898;BME280;27576;53.366;-1.498;2023-03-31T10:58:08;97239.16;;;10.84;100.00
41898;BME280;27576;53.366;-1.498;2023-03-31T11:04:04;97245.94;;;10.64;100.00
41898;BME280;27576;53.366;-1.498;2023-03-31T11:12:05;97262.06;;;10.49;100.00
41898;BME280;27576;53.366;-1.498;2023-03-31T11:15:24;97252.06;;;10.40;100.00
41898;BME280;27576;53.366;-1.498;2023-03-31T11:20:49;97270.44;;;10.32;100.00
41898;BME280;27576;53.366;-1.498;2023-03-31T11:36:55;97301.28;;;10.13;100.00
41898;BME280;27576;53.366;-1.498;2023-03-31T11:39:36;97286.84;;;10.06;100.00
41898;BME280;27576;53.366;-1.498;2023-03-31T11:42:13;97267.03;;;10.06;100.00
41898;BME280;27576;53.366;-1.498;2023-03-31T11:44:44;97261.72;;;10.09;100.00
41898;BME280;27576;53.366;-1.498;2023-03-31T11:47:16;97285.94;;;10.34;100.00
41898;BME280;27576;53.366;-1.498;2023-03-31T11:49:55;97311.09;;;10.53;100.00
41898;BME280;27576;53.366;-1.498;2023-03-31T11:52:28;97311.69;;;10.60;100.00
41898;BME280;27576;53.366;-1.498;2023-03-31T11:55:24;97318.44;;;10.64;100.00
41898;BME280;27576;53.366;-1.498;2023-03-31T12:00:22;97309.38;;;10.52;100.00
41898;BME280;27576;53.366;-1.498;2023-03-31T12:05:27;97299.28;;;10.46;100.00
41898;BME280;27576;53.366;-1.498;2023-03-31T12:08:02;97322.28;;;10.54;100.00
41898;BME280;27576;53.366;-1.498;2023-03-31T12:10:38;97347.63;;;10.69;100.00
41898;BME280;27576;53.366;-1.498;2023-03-31T12:16:09;97333.66;;;10.50;100.00
41898;BME280;27576;53.366;-1.498;2023-03-31T12:18:41;97359.09;;;10.62;100.00
41898;BME280;27576;53.366;-1.498;2023-03-31T12:21:09;97336.34;;;10.47;100.00
41898;BME280;27576;53.366;-1.498;2023-03-31T12:23:39;97336.28;;;10.48;100.00
41898;BME280;27576;53.366;-1.498;2023-03-31T12:26:30;97362.94;;;10.75;100.00
41898;BME280;27576;53.366;-1.498;2023-03-31T12:29:05;97335.56;;;10.68;100.00
41898;BME280;27576;53.366;-1.498;2023-03-31T12:31:32;97365.34;;;10.80;100.00
41898;BME280;27576;53.366;-1.498;2023-03-31T12:34:09;97369.94;;;10.73;100.00
41898;BME280;27576;53.366;-1.498;2023-03-31T12:36:59;97377.84;;;10.69;100.00
41898;BME280;27576;53.366;-1.498;2023-03-31T12:40:13;97382.25;;;10.67;100.00
41898;BME280;27576;53.366;-1.498;2023-03-31T12:45:20;97354.47;;;10.47;100.00
41898;BME280;27576;53.366;-1.498;2023-03-31T13:01:13;97409.22;;;10.85;100.00
41898;BME280;27576;53.366;-1.498;2023-03-31T13:03:43;97405.09;;;10.79;100.00
41898;BME280;27576;53.366;-1.498;2023-03-31T13:08:56;97404.34;;;10.52;100.00
41898;BME280;27576;53.366;-1.498;2023-03-31T13:13:59;97432.19;;;10.70;100.00
41898;BME280;27576;53.366;-1.498;2023-03-31T13:16:30;97399.22;;;10.50;100.00
41898;BME280;27576;53.366;-1.498;2023-03-31T13:18:57;97442.19;;;10.79;100.00
41898;BME280;27576;53.366;-1.498;2023-03-31T13:21:23;97450.03;;;10.78;100.00
41898;BME280;27576;53.366;-1.498;2023-03-31T13:23:49;97424.28;;;10.50;100.00
41898;BME280;27576;53.366;-1.498;2023-03-31T13:34:30;97470.38;;;10.39;100.00
41898;BME280;27576;53.366;-1.498;2023-03-31T13:42:56;97488.59;;;10.36;100.00
41898;BME280;27576;53.366;-1.498;2023-03-31T13:48:56;97497.25;;;10.35;100.00
41898;BME280;27576;53.366;-1.498;2023-03-31T13:51:53;97504.28;;;10.31;100.00
41898;BME280;27576;53.366;-1.498;2023-03-31T14:08:49;97450.34;;;9.64;100.00
41898;BME280;27576;53.366;-1.498;2023-03-31T14:13:42;97514.13;;;9.92;100.00
41898;BME280;27576;53.366;-1.498;2023-03-31T14:16:07;97509.72;;;9.95;100.00
41898;BME280;27576;53.366;-1.498;2023-03-31T14:18:37;97536.13;;;10.05;100.00
41898;BME280;27576;53.366;-1.498;2023-03-31T14:23:53;97553.25;;;10.09;100.00
41898;BME280;27576;53.366;-1.498;2023-03-31T14:26:52;97546.69;;;9.99;100.00
41898;BME280;27576;53.366;-1.498;2023-03-31T14:29:27;97552.78;;;9.96;100.00
41898;BME280;27576;53.366;-1.498;2023-03-31T14:32:06;97559.50;;;10.02;100.00
41898;BME280;27576;53.366;-1.498;2023-03-31T14:34:52;97547.00;;;9.88;100.00
41898;BME280;27576;53.366;-1.498;2023-03-31T14:37:22;97585.41;;;10.00;100.00
41898;BME280;27576;53.366;-1.498;2023-03-31T14:39:50;97585.56;;;9.96;100.00
41898;BME280;27576;53.366;-1.498;2023-03-31T14:44:47;97597.66;;;9.95;100.00
41898;BME280;27576;53.366;-1.498;2023-03-31T14:47:22;97595.09;;;9.94;100.00
41898;BME280;27576;53.366;-1.498;2023-03-31T14:49:57;97565.56;;;9.73;100.00
41898;BME280;27576;53.366;-1.498;2023-03-31T14:52:23;97564.72;;;9.72;100.00
41898;BME280;27576;53.366;-1.498;2023-03-31T14:54:51;97604.66;;;9.92;100.00
41898;BME280;27576;53.366;-1.498;2023-03-31T14:57:19;97607.31;;;9.89;100.00
41898;BME280;27576;53.366;-1.498;2023-03-31T14:59:49;97619.19;;;9.96;100.00
41898;BME280;27576;53.366;-1.498;2023-03-31T15:02:36;97597.19;;;9.81;100.00
41898;BME280;27576;53.366;-1.498;2023-03-31T15:05:04;97591.53;;;9.68;100.00
41898;BME280;27576;53.366;-1.498;2023-03-31T15:07:31;97620.47;;;9.81;100.00
41898;BME280;27576;53.366;-1.498;2023-03-31T15:09:57;97597.63;;;9.67;100.00
41898;BME280;27576;53.366;-1.498;2023-03-31T15:12:23;97646.06;;;9.90;100.00
41898;BME280;27576;53.366;-1.498;2023-03-31T15:14:50;97647.72;;;9.93;100.00
41898;BME280;27576;53.366;-1.498;2023-03-31T15:17:18;97645.22;;;9.90;100.00
41898;BME280;27576;53.366;-1.498;2023-03-31T15:19:44;97627.59;;;9.73;100.00
41898;BME280;27576;53.366;-1.498;2023-03-31T15:22:14;97638.63;;;9.79;100.00
41898;BME280;27576;53.366;-1.498;2023-03-31T15:24:41;97616.00;;;9.56;100.00
41898;BME280;27576;53.366;-1.498;2023-03-31T15:27:32;97673.72;;;9.88;100.00
41898;BME280;27576;53.366;-1.498;2023-03-31T15:30:00;97646.47;;;9.76;100.00
41898;BME280;27576;53.366;-1.498;2023-03-31T15:32:36;97661.16;;;9.74;100.00
41898;BME280;27576;53.366;-1.498;2023-03-31T15:35:04;97666.44;;;9.71;100.00